Time;durP1;ratioP1;P1;durP2;ratioP2;P2;SDS_P1;SDS_P2;PMS_P1;PMS_P2;Temp;Humidity;BMP_temperature;BMP_pressure;BME280_temperature;BME280_humidity;BME280_pressure;Samples;Min_cycle;Max_cycle;Signal;HPM_P1;HPM_P2
2022/05/21 00:00:50;;;;;;;1.10;1.10;;;18.70;99.90;;;19.21;nan;101081.44;5029960;28;20633;-67
2022/05/21 00:03:17;;;;;;;1.80;1.70;;;18.60;99.90;;;19.21;nan;101074.34;5030244;28;20645;-68
2022/05/21 00:05:46;;;;;;;2.63;2.53;;;18.50;99.90;;;19.18;nan;101089.69;5017587;28;20669;-67
2022/05/21 00:08:13;;;;;;;2.50;2.23;;;18.50;99.90;;;19.18;nan;101087.88;5010337;28;20648;-67
2022/05/21 00:10:41;;;;;;;2.13;2.03;;;18.50;99.90;;;19.26;nan;101108.28;5007203;28;20668;-67
2022/05/21 00:13:08;;;;;;;2.67;2.03;;;18.60;99.90;;;19.27;nan;101107.31;5008797;28;20630;-67
2022/05/21 00:15:36;;;;;;;4.70;2.30;;;18.60;99.90;;;19.23;nan;101104.09;5008495;28;21048;-68
2022/05/21 00:18:06;;;;;;;1.67;1.57;;;18.60;99.70;;;19.24;nan;101104.94;5009111;28;20640;-69
2022/05/21 00:20:48;;;;;;;1.53;1.50;;;18.60;98.50;;;19.17;nan;101106.53;5012352;28;20632;-67
2022/05/21 00:23:29;;;;;;;1.57;1.57;;;18.60;98.20;;;19.08;nan;101120.72;5025774;28;20634;-68
2022/05/21 00:26:04;;;;;;;1.00;0.77;;;18.50;98.10;;;19.08;nan;101126.00;5009456;28;20668;-66
2022/05/21 00:28:33;;;;;;;1.50;1.40;;;18.50;98.10;;;18.95;nan;101131.66;5019271;28;21177;-68
2022/05/21 00:31:02;;;;;;;1.90;1.70;;;18.40;98.10;;;18.93;nan;101130.16;5016121;28;21543;-68
2022/05/21 00:33:29;;;;;;;1.93;1.83;;;18.30;98.20;;;18.88;nan;101121.84;5013514;28;20621;-66
2022/05/21 00:35:56;;;;;;;1.90;1.80;;;18.30;98.50;;;18.83;nan;101143.44;5014087;28;21004;-68
2022/05/21 00:38:24;;;;;;;1.97;1.87;;;18.20;98.40;;;18.81;nan;101144.56;5012842;28;20633;-67
2022/05/21 00:40:53;;;;;;;1.93;1.67;;;18.20;98.50;;;18.85;nan;101149.41;5013374;28;20641;-67
2022/05/21 00:43:44;;;;;;;1.50;1.10;;;18.20;98.40;;;18.64;nan;101150.69;5024167;28;20639;-67
2022/05/21 00:46:25;;;;;;;1.80;1.70;;;18.10;98.40;;;18.67;nan;101151.22;5019661;28;20672;-67
2022/05/21 00:49:19;;;;;;;1.73;1.70;;;18.00;98.60;;;18.59;nan;101156.44;5014273;28;20988;-67
2022/05/21 00:51:52;;;;;;;1.70;1.33;;;18.00;98.70;;;18.61;nan;101161.56;5016130;28;20644;-67
2022/05/21 00:54:25;;;;;;;1.73;1.63;;;18.00;98.80;;;18.55;nan;101158.53;5012188;28;20640;-68
2022/05/21 00:56:59;;;;;;;1.80;1.70;;;17.90;98.90;;;18.40;nan;101170.53;5011445;28;20661;-69
2022/05/21 01:02:15;;;;;;;1.43;1.33;;;17.80;99.20;;;18.37;nan;101157.66;5011493;28;21242;-67
2022/05/21 01:04:44;;;;;;;1.90;1.80;;;17.70;99.50;;;18.34;nan;101170.28;5021129;28;20643;-67
2022/05/21 01:07:14;;;;;;;1.90;1.80;;;17.70;99.10;;;18.34;nan;101165.84;5012557;28;20665;-67
2022/05/21 01:09:54;;;;;;;3.10;1.67;;;17.70;99.10;;;18.36;nan;101173.63;5014993;28;20731;-68
2022/05/21 01:12:28;;;;;;;1.10;1.10;;;17.70;99.00;;;18.27;nan;101177.97;5010906;28;20639;-68
2022/05/21 01:15:00;;;;;;;2.53;2.33;;;17.60;99.10;;;18.29;nan;101172.56;5011272;28;20644;-68
2022/05/21 01:17:27;;;;;;;6.40;1.60;;;17.60;99.20;;;18.29;nan;101173.38;5030478;28;20667;-67
2022/05/21 01:20:13;;;;;;;1.60;1.50;;;17.70;99.40;;;18.23;nan;101176.59;5009941;28;20622;-69
2022/05/21 01:22:45;;;;;;;2.03;1.93;;;17.60;99.10;;;18.18;nan;101165.66;5013242;28;20640;-68
2022/05/21 01:25:19;;;;;;;2.10;1.90;;;17.60;99.20;;;18.19;nan;101172.59;5012241;28;20640;-64
2022/05/21 01:27:49;;;;;;;1.40;1.40;;;17.60;99.40;;;18.23;nan;101175.81;5013237;28;20632;-67
2022/05/21 01:30:32;;;;;;;1.93;1.83;;;17.60;99.50;;;18.21;nan;101177.72;5012578;28;21074;-68
2022/05/21 01:33:04;;;;;;;1.47;1.37;;;17.60;99.40;;;18.20;nan;101168.16;5012980;28;20625;-68
2022/05/21 01:35:32;;;;;;;1.90;1.57;;;17.50;99.50;;;18.20;nan;101161.06;5014586;28;20641;-69
2022/05/21 01:37:59;;;;;;;1.80;1.70;;;17.50;99.30;;;18.18;nan;101167.47;5012578;28;20632;-69
2022/05/21 01:40:27;;;;;;;2.03;1.87;;;17.50;99.40;;;18.13;nan;101170.53;5009974;28;20994;-65
2022/05/21 01:45:41;;;;;;;1.40;1.37;;;17.40;99.70;;;18.08;nan;101169.34;5010519;28;20637;-68
2022/05/21 01:48:09;;;;;;;2.03;1.93;;;17.40;99.70;;;18.01;nan;101174.34;5011778;28;20633;-68
2022/05/21 01:50:38;;;;;;;1.90;1.80;;;17.30;99.90;;;17.97;nan;101182.72;5015066;28;20674;-68
2022/05/21 01:53:06;;;;;;;1.90;1.80;;;17.30;99.90;;;18.03;nan;101177.69;5015914;28;21317;-66
2022/05/21 01:55:33;;;;;;;2.17;1.90;;;17.40;99.90;;;17.96;nan;101197.72;5010835;28;20632;-67
2022/05/21 01:58:00;;;;;;;2.30;1.80;;;17.30;99.90;;;17.97;nan;101195.91;4992284;28;20633;-68
2022/05/21 02:00:27;;;;;;;1.73;1.63;;;17.30;99.90;;;17.89;nan;101198.44;4990930;28;20657;-67
2022/05/21 02:02:54;;;;;;;1.60;1.50;;;17.30;99.90;;;17.70;nan;101199.31;5007812;28;20641;-67
2022/05/21 02:05:21;;;;;;;2.30;2.10;;;17.10;99.90;;;17.78;nan;101199.44;5010980;28;20864;-67
2022/05/21 02:07:48;;;;;;;1.90;1.80;;;17.10;99.90;;;17.76;nan;101196.94;5014501;28;20601;-68
2022/05/21 02:10:17;;;;;;;1.90;1.80;;;17.10;99.90;;;17.79;nan;101193.19;5013692;28;20676;-68
2022/05/21 02:12:43;;;;;;;2.07;1.93;;;17.10;99.90;;;17.82;nan;101203.47;5009326;28;20638;-67
2022/05/21 02:15:11;;;;;;;1.90;1.67;;;17.20;99.90;;;17.75;nan;101203.19;5011376;28;20624;-67
2022/05/21 02:17:39;;;;;;;1.27;1.17;;;17.10;99.90;;;17.70;nan;101205.41;5057594;22;21053;-69
2022/05/21 02:20:07;;;;;;;2.20;2.00;;;17.00;99.90;;;17.59;nan;101204.75;5034528;28;20627;-66
2022/05/21 02:22:36;;;;;;;1.97;1.73;;;16.90;99.90;;;17.51;nan;101208.09;5051075;28;20685;-69
2022/05/21 02:25:04;;;;;;;2.03;1.90;;;16.90;99.90;;;17.40;nan;101207.38;5034373;28;20635;-67
2022/05/21 02:27:32;;;;;;;2.00;1.90;;;16.70;99.90;;;17.32;nan;101209.88;5049047;28;20646;-67
2022/05/21 02:29:59;;;;;;;2.17;2.00;;;16.70;99.90;;;17.25;nan;101212.22;5040222;28;20667;-68
2022/05/21 02:32:26;;;;;;;1.97;1.87;;;16.60;99.90;;;17.30;nan;101214.44;5070119;28;20638;-67
2022/05/21 02:34:53;;;;;;;2.00;1.90;;;16.70;99.90;;;17.36;nan;101213.88;5063119;28;20640;-67
2022/05/21 02:40:09;;;;;;;3.10;1.80;;;16.60;99.90;;;17.18;nan;101220.84;5050621;28;20782;-67
2022/05/21 02:42:45;;;;;;;1.90;1.80;;;16.50;99.90;;;17.10;nan;101228.63;5050853;28;20620;-67
2022/05/21 02:45:25;;;;;;;3.80;2.00;;;16.50;99.90;;;17.24;nan;101231.69;5049792;28;21051;-69
2022/05/21 02:47:53;;;;;;;1.90;1.80;;;16.60;99.90;;;17.12;nan;101231.94;5046918;28;21285;-68
2022/05/21 02:50:24;;;;;;;2.00;1.90;;;16.50;99.90;;;17.06;nan;101233.31;5033155;28;21232;-67
2022/05/21 02:52:52;;;;;;;2.30;2.10;;;16.40;99.90;;;17.06;nan;101230.69;5051516;28;20644;-64
2022/05/21 02:55:19;;;;;;;2.70;1.70;;;16.50;99.90;;;16.97;nan;101229.69;5032743;28;20634;-66
2022/05/21 02:57:47;;;;;;;1.93;1.83;;;16.40;99.90;;;16.97;nan;101231.53;5054369;28;20672;-68
2022/05/21 03:00:20;;;;;;;1.63;1.63;;;16.40;99.90;;;16.96;nan;101233.31;5064737;28;20635;-67
2022/05/21 03:02:47;;;;;;;2.17;1.90;;;16.30;99.90;;;16.99;nan;101233.03;5031997;28;20635;-69
2022/05/21 03:05:15;;;;;;;1.77;1.67;;;16.40;99.90;;;16.94;nan;101234.41;5053384;28;20643;-67
2022/05/21 03:07:47;;;;;;;1.70;1.60;;;16.30;99.90;;;16.92;nan;101237.19;5033176;28;20648;-67
2022/05/21 03:10:20;;;;;;;1.67;1.57;;;16.30;99.90;;;16.92;nan;101234.56;5066741;28;20664;-67
2022/05/21 03:12:54;;;;;;;1.60;1.50;;;16.30;99.90;;;16.89;nan;101234.81;5056017;28;20654;-68
2022/05/21 03:15:37;;;;;;;1.80;1.70;;;16.30;99.90;;;16.87;nan;101234.13;5029479;28;20627;-67
2022/05/21 03:18:09;;;;;;;1.60;1.50;;;16.30;99.90;;;16.68;nan;101238.50;5031394;28;20674;-67
2022/05/21 03:20:37;;;;;;;1.83;1.73;;;16.10;99.90;;;16.69;nan;101235.78;5033936;28;20611;-67
2022/05/21 03:23:04;;;;;;;1.80;1.50;;;16.10;99.90;;;16.73;nan;101236.31;5032596;28;21020;-68
2022/05/21 03:25:32;;;;;;;2.30;1.80;;;16.10;99.90;;;16.70;nan;101241.84;5063583;28;21188;-68
2022/05/21 03:28:00;;;;;;;1.40;1.30;;;16.10;99.90;;;16.70;nan;101245.31;5049609;28;20659;-67
2022/05/21 03:30:30;;;;;;;1.60;1.50;;;16.10;99.90;;;16.66;nan;101241.28;5050419;28;20671;-66
2022/05/21 03:32:57;;;;;;;1.73;1.63;;;16.10;99.90;;;16.68;nan;101244.63;5048914;28;20643;-66
2022/05/21 03:35:25;;;;;;;1.40;1.30;;;16.10;99.90;;;16.71;nan;101238.25;5035335;28;20758;-68
2022/05/21 03:37:53;;;;;;;1.30;1.27;;;16.10;99.90;;;16.74;nan;101237.97;5048766;28;20679;-67
2022/05/21 03:40:26;;;;;;;2.30;1.27;;;16.10;99.90;;;16.70;nan;101242.69;5049830;28;20618;-66
2022/05/21 03:42:54;;;;;;;1.20;1.10;;;16.10;99.90;;;16.69;nan;101238.41;5033964;28;20669;-66
2022/05/21 03:45:22;;;;;;;1.60;1.50;;;16.10;99.90;;;16.75;nan;101248.41;5065602;28;20623;-67
2022/05/21 03:47:51;;;;;;;2.00;1.90;;;16.10;99.90;;;16.46;nan;101244.78;5032561;28;20647;-67
2022/05/21 03:50:23;;;;;;;1.63;1.50;;;16.00;99.90;;;16.42;nan;101248.66;5032948;28;20666;-67
2022/05/21 03:52:50;;;;;;;1.63;1.53;;;15.80;99.90;;;16.42;nan;101245.22;5032780;28;20631;-68
2022/05/21 03:55:17;;;;;;;1.30;1.30;;;15.80;99.90;;;16.41;nan;101252.28;5049291;28;20638;-67
2022/05/21 03:57:44;;;;;;;1.00;1.00;;;15.80;99.90;;;16.43;nan;101255.59;5059648;28;20667;-67
2022/05/21 04:00:15;;;;;;;1.07;1.07;;;15.90;99.90;;;16.41;nan;101247.00;5065489;28;20631;-66
2022/05/21 04:02:42;;;;;;;1.60;1.50;;;15.80;99.90;;;16.48;nan;101250.78;5052561;28;20639;-65
2022/05/21 04:05:11;;;;;;;1.33;1.30;;;15.90;99.90;;;16.59;nan;101260.44;5032133;28;20619;-66
2022/05/21 04:07:39;;;;;;;1.30;1.30;;;16.00;99.90;;;16.68;nan;101259.59;5035477;28;20672;-67
2022/05/21 04:10:08;;;;;;;1.53;1.47;;;16.20;99.90;;;16.75;nan;101256.31;5042827;28;20635;-66
2022/05/21 04:12:35;;;;;;;1.50;1.50;;;16.20;99.90;;;16.87;nan;101268.41;5047956;28;20628;-70
2022/05/21 04:15:04;;;;;;;1.10;1.10;;;16.40;99.90;;;17.10;nan;101270.81;5048154;28;20675;-67
2022/05/21 04:17:31;;;;;;;2.70;1.57;;;16.60;99.90;;;17.29;nan;101266.38;5047734;28;20659;-68
2022/05/21 04:19:58;;;;;;;2.23;1.53;;;16.80;99.90;;;17.48;nan;101271.66;5053985;28;21208;-66
2022/05/21 04:22:25;;;;;;;1.30;1.30;;;17.00;99.90;;;17.67;nan;101265.59;5070739;28;20626;-67
2022/05/21 04:24:51;;;;;;;7.27;1.40;;;17.20;99.90;;;17.80;nan;101266.94;5069443;28;20618;-67
2022/05/21 04:27:19;;;;;;;1.60;1.50;;;17.40;99.90;;;17.91;nan;101278.34;5050684;28;20650;-66
2022/05/21 04:29:46;;;;;;;1.87;1.37;;;17.50;99.90;;;18.12;nan;101281.63;5047236;28;20642;-66
2022/05/21 04:32:13;;;;;;;1.60;1.43;;;17.70;99.90;;;18.39;nan;101282.50;5061245;28;20690;-68
2022/05/21 04:34:41;;;;;;;1.33;1.33;;;18.00;99.90;;;18.46;nan;101285.44;5048341;28;20636;-68
2022/05/21 04:37:08;;;;;;;1.63;1.53;;;18.00;99.80;;;18.72;nan;101280.31;5050912;28;20663;-68
2022/05/21 04:39:35;;;;;;;1.93;1.63;;;18.30;99.50;;;18.90;nan;101278.53;5049947;28;20639;-66
2022/05/21 04:42:02;;;;;;;1.60;1.50;;;18.50;98.80;;;18.95;nan;101271.81;5052282;28;20638;-68
2022/05/21 04:44:31;;;;;;;1.90;1.80;;;18.60;98.30;;;19.23;nan;101272.59;5033807;28;20652;-66
2022/05/21 04:46:59;;;;;;;1.80;1.70;;;18.80;97.90;;;19.41;nan;101285.88;5038610;28;20658;-67
2022/05/21 04:49:27;;;;;;;5.87;2.00;;;19.00;97.20;;;19.66;nan;101283.28;5068873;28;20748;-68
2022/05/21 04:51:54;;;;;;;5.60;1.97;;;19.20;96.90;;;19.88;nan;101279.31;5047087;28;20670;-68
2022/05/21 04:54:21;;;;;;;2.30;2.20;;;19.50;96.30;;;20.08;nan;101286.09;5034990;28;20631;-66
2022/05/21 04:56:49;;;;;;;2.40;2.30;;;19.70;95.60;;;20.25;nan;101287.06;5057328;28;20715;-67
2022/05/21 04:59:16;;;;;;;1.70;1.60;;;19.90;95.00;;;20.32;nan;101286.25;5030458;28;20640;-69
2022/05/21 05:01:43;;;;;;;2.00;1.90;;;20.00;94.50;;;20.45;nan;101283.19;5049094;28;20639;-67
2022/05/21 05:04:10;;;;;;;1.90;1.80;;;20.10;94.00;;;20.58;nan;101278.28;5052206;28;20641;-71
2022/05/21 05:06:38;;;;;;;2.10;1.70;;;20.20;93.70;;;20.73;nan;101288.13;5051279;28;21017;-67
2022/05/21 05:09:07;;;;;;;1.60;1.50;;;20.30;93.40;;;20.88;nan;101291.00;5031553;28;20676;-67
2022/05/21 05:11:35;;;;;;;1.57;1.47;;;20.50;93.00;;;20.97;nan;101290.03;5049998;28;20686;-68
2022/05/21 05:14:02;;;;;;;1.40;1.40;;;20.60;92.40;;;21.09;nan;101295.88;5058637;28;21207;-67
2022/05/21 05:16:29;;;;;;;1.20;1.20;;;20.70;92.10;;;21.14;nan;101290.94;5052398;28;20670;-67
2022/05/21 05:18:56;;;;;;;1.57;1.47;;;20.70;91.60;;;21.19;nan;101296.59;5072025;28;20606;-68
2022/05/21 05:21:23;;;;;;;1.53;1.43;;;20.80;91.50;;;21.27;nan;101297.44;5066649;28;20633;-68
2022/05/21 05:23:50;;;;;;;1.33;1.10;;;20.90;90.90;;;21.43;nan;101300.09;5072923;28;21003;-68
2022/05/21 05:26:17;;;;;;;1.43;1.07;;;21.10;90.30;;;21.61;nan;101303.44;5064308;28;21131;-68
2022/05/21 05:28:45;;;;;;;1.47;1.27;;;21.20;90.00;;;21.62;nan;101297.13;5057013;28;20631;-67
2022/05/21 05:31:12;;;;;;;3.10;1.30;;;21.20;89.60;;;21.73;nan;101300.44;5053118;28;20667;-67
2022/05/21 05:33:39;;;;;;;1.43;1.30;;;21.40;89.00;;;21.83;nan;101301.16;5052792;28;20624;-63
2022/05/21 05:36:07;;;;;;;1.60;1.50;;;21.40;88.60;;;22.15;nan;101306.41;5071955;28;20649;-66
2022/05/21 05:38:34;;;;;;;1.23;1.20;;;21.70;87.90;;;22.51;nan;101312.97;5052137;28;20638;-65
2022/05/21 05:41:01;;;;;;;1.63;1.10;;;22.20;86.60;;;22.80;nan;101305.28;5045789;28;20632;-65
2022/05/21 05:43:29;;;;;;;1.23;0.90;;;22.50;85.20;;;23.13;nan;101308.59;5052597;28;20638;-66
2022/05/21 05:45:58;;;;;;;0.83;0.83;;;22.80;82.80;;;23.24;nan;101294.03;5052970;28;20635;-65
2022/05/21 05:48:28;;;;;;;4.00;1.30;;;22.90;81.70;;;23.67;nan;101299.59;5053394;28;20611;-65
2022/05/21 05:50:57;;;;;;;0.80;0.80;;;23.30;80.10;;;24.09;nan;101293.75;5052734;28;20678;-68
2022/05/21 05:53:25;;;;;;;1.47;1.10;;;23.80;78.50;;;24.52;nan;101297.44;5052179;28;20627;-66
2022/05/21 05:55:52;;;;;;;1.67;1.03;;;24.20;76.30;;;24.91;nan;101295.31;5037304;28;20634;-65
2022/05/21 06:01:07;;;;;;;1.00;1.00;;;25.10;72.40;;;25.70;nan;101299.69;5059593;28;20649;-66
2022/05/21 06:03:36;;;;;;;3.37;1.03;;;25.40;71.00;;;25.62;nan;101290.97;5049007;28;20635;-65
2022/05/21 06:06:05;;;;;;;3.37;1.00;;;25.50;69.10;;;25.75;nan;101301.75;5072880;28;21175;-66
2022/05/21 06:08:33;;;;;;;1.93;1.23;;;25.50;68.70;;;25.81;nan;101306.34;5051839;28;20972;-66
2022/05/21 06:11:00;;;;;;;2.27;1.10;;;25.50;68.00;;;26.13;nan;101301.25;5052936;28;20671;-65
2022/05/21 06:13:27;;;;;;;0.90;0.90;;;25.80;67.40;;;26.39;nan;101310.47;5052837;28;20684;-65
2022/05/21 06:15:54;;;;;;;4.00;1.00;;;26.00;66.00;;;26.46;nan;101306.84;5051433;28;20619;-66
2022/05/21 06:18:22;;;;;;;1.00;1.00;;;26.20;64.90;;;26.92;nan;101307.06;5052452;28;20646;-65
2022/05/21 06:20:50;;;;;;;1.07;1.07;;;26.60;64.10;;;27.60;nan;101303.34;5052812;28;20630;-65
2022/05/21 06:23:18;;;;;;;1.80;0.97;;;27.30;62.30;;;27.95;nan;101320.91;5052964;28;20615;-65
2022/05/21 06:25:46;;;;;;;1.00;1.00;;;27.70;60.90;;;28.22;nan;101314.50;5037242;28;20641;-66
2022/05/21 06:28:14;;;;;;;1.23;1.10;;;28.00;59.40;;;27.76;nan;101316.34;5032648;28;20612;-66
2022/05/21 06:30:44;;;;;;;1.23;0.90;;;27.40;59.60;;;27.40;nan;101322.09;5043443;28;21223;-65
2022/05/21 06:33:17;;;;;;;1.80;1.00;;;27.00;59.80;;;27.10;nan;101319.91;5034863;28;20636;-66
2022/05/21 06:35:48;;;;;;;1.03;1.03;;;26.60;60.40;;;27.02;nan;101328.97;5051564;28;20619;-66
2022/05/21 06:38:16;;;;;;;1.37;0.93;;;26.70;60.10;;;26.70;nan;101329.63;5052409;28;21188;-66
2022/05/21 06:40:43;;;;;;;1.40;1.30;;;26.30;60.00;;;26.38;nan;101330.25;5052277;28;20624;-65
2022/05/21 06:43:10;;;;;;;3.93;0.97;;;25.90;60.80;;;26.29;nan;101320.72;5051671;28;21254;-65
2022/05/21 06:45:37;;;;;;;1.13;0.80;;;25.70;61.60;;;27.50;nan;101327.88;5052349;28;20681;-67
2022/05/21 06:48:07;;;;;;;1.10;1.00;;;26.80;60.50;;;29.39;nan;101328.56;5052216;28;20701;-65
2022/05/21 06:50:37;;;;;;;0.80;0.80;;;28.80;58.20;;;30.80;nan;101340.38;5051552;28;20624;-65
2022/05/21 06:53:04;;;;;;;1.40;1.30;;;30.60;54.80;;;32.10;nan;101335.81;5034343;28;20675;-65
2022/05/21 06:55:31;;;;;;;1.20;1.10;;;31.70;52.70;;;32.46;nan;101336.59;5050879;28;20638;-65
2022/05/21 06:58:00;;;;;;;1.00;1.00;;;32.10;51.20;;;32.92;nan;101331.94;5050796;28;21093;-66
2022/05/21 07:00:27;;;;;;;4.60;1.40;;;32.50;49.90;;;33.31;nan;101340.28;5051175;28;20639;-68
2022/05/21 07:02:54;;;;;;;1.10;1.00;;;32.80;49.00;;;34.03;nan;101335.91;5051890;28;20631;-64
2022/05/21 07:08:24;;;;;;;1.27;1.10;;;34.10;46.60;;;34.94;nan;101335.25;5050172;28;20639;-66
2022/05/21 07:10:52;;;;;;;1.10;1.10;;;34.60;45.60;;;36.18;nan;101325.03;5050216;28;20639;-65
2022/05/21 07:13:22;;;;;;;0.90;0.90;;;35.70;44.70;;;36.29;nan;101322.09;5050530;28;20696;-66
2022/05/21 07:15:52;;;;;;;1.53;1.10;;;36.00;43.80;;;37.26;nan;101326.88;5035499;28;20653;-66
2022/05/21 07:18:21;;;;;;;1.60;1.50;;;36.80;43.30;;;38.40;nan;101312.69;5055876;28;20632;-66
2022/05/21 07:20:49;;;;;;;1.50;1.40;;;38.00;42.00;;;39.50;nan;101323.00;5062102;28;20647;-66
2022/05/21 07:23:17;;;;;;;1.50;1.37;;;39.20;41.00;;;40.09;nan;101313.75;5054346;28;20639;-67
2022/05/21 07:25:44;;;;;;;1.27;1.10;;;39.80;39.70;;;39.88;nan;101315.84;5032890;28;20612;-66
2022/05/21 07:28:12;;;;;;;1.40;1.30;;;39.60;39.30;;;39.98;nan;101318.50;5053729;28;20642;-69
2022/05/21 07:30:40;;;;;;;1.17;1.17;;;39.90;38.80;;;39.34;nan;101315.19;5068208;28;20614;-66
2022/05/21 07:33:15;;;;;;;3.27;1.60;;;39.30;38.90;;;38.74;nan;101317.19;5034180;28;20671;-66
2022/05/21 07:35:43;;;;;;;4.83;1.57;;;38.80;38.90;;;39.13;nan;101322.72;5062754;28;20622;-67
2022/05/21 07:38:13;;;;;;;1.33;1.27;;;39.00;38.90;;;39.67;nan;101335.44;5049113;28;21011;-66
2022/05/21 07:40:41;;;;;;;1.30;1.30;;;39.20;38.90;;;40.45;nan;101336.88;5056777;28;20638;-66
2022/05/21 07:43:19;;;;;;;1.30;1.20;;;40.10;38.30;;;40.80;nan;101327.41;5055635;28;20642;-65
2022/05/21 07:45:47;;;;;;;1.53;1.17;;;40.70;38.30;;;41.28;nan;101330.84;5039603;28;20635;-65
2022/05/21 07:48:18;;;;;;;2.23;1.30;;;40.90;37.40;;;41.45;nan;101329.19;5066998;28;21016;-64
2022/05/21 07:50:52;;;;;;;4.20;1.60;;;41.20;37.10;;;41.70;nan;101322.53;5063759;28;20859;-65
2022/05/21 07:53:32;;;;;;;2.00;1.70;;;41.50;36.90;;;41.50;nan;101340.09;5059258;28;20669;-66
2022/05/21 07:55:59;;;;;;;1.37;1.20;;;41.40;36.60;;;40.56;nan;101332.91;5043578;28;21172;-65
2022/05/21 07:58:29;;;;;;;1.63;1.53;;;40.40;36.90;;;38.66;nan;101341.47;5050151;28;20694;-66
2022/05/21 08:00:56;;;;;;;1.47;1.47;;;38.50;37.70;;;38.63;nan;101331.13;5056953;28;20629;-64
2022/05/21 08:03:24;;;;;;;1.40;1.30;;;38.00;38.60;;;39.61;nan;101337.41;5067965;28;20987;-67
2022/05/21 08:05:52;;;;;;;1.40;1.40;;;39.10;38.40;;;40.27;nan;101326.69;5050910;28;20645;-68
2022/05/21 08:08:19;;;;;;;1.53;1.43;;;39.80;37.40;;;40.42;nan;101328.44;5052397;28;20639;-64
2022/05/21 08:10:46;;;;;;;1.80;1.40;;;40.30;36.90;;;41.01;nan;101328.78;5050423;28;21054;-66
2022/05/21 08:13:16;;;;;;;1.57;1.47;;;40.80;36.40;;;41.50;nan;101320.91;5040842;28;20684;-66
2022/05/21 08:15:44;;;;;;;1.50;1.50;;;41.30;36.20;;;40.37;nan;101326.53;5051189;28;21084;-66
2022/05/21 08:18:12;;;;;;;2.03;1.67;;;40.00;36.70;;;40.24;nan;101333.53;5068117;23;21052;-69
2022/05/21 08:20:41;;;;;;;1.30;1.30;;;39.90;36.80;;;41.02;nan;101326.84;5008731;28;20618;-69
2022/05/21 08:28:49;;;;;;;1.30;1.30;;;40.20;36.40;;;41.60;nan;101325.38;5026447;28;20667;-69
2022/05/21 08:31:18;;;;;;;1.40;1.30;;;41.30;35.60;;;40.59;nan;101318.66;5029174;28;21198;-69
2022/05/21 08:33:45;;;;;;;1.60;1.60;;;41.60;35.10;;;41.40;nan;101312.84;5010570;28;20636;-65
2022/05/21 08:36:12;;;;;;;1.40;1.40;;;41.10;35.30;;;42.16;nan;101309.59;5028611;28;20844;-69
2022/05/21 08:38:45;;;;;;;1.50;1.40;;;41.80;35.20;;;43.03;nan;101315.72;5013688;28;20671;-68
2022/05/21 08:41:23;;;;;;;2.03;1.63;;;42.70;34.70;;;43.72;nan;101317.09;5011938;28;20667;-69
2022/05/21 08:44:09;;;;;;;1.60;1.50;;;43.90;33.90;;;44.23;nan;101307.44;5029941;28;20643;-69
2022/05/21 08:47:15;;;;;;;1.60;1.50;;;44.00;33.90;;;42.66;nan;101304.22;5026750;28;20667;-69
2022/05/21 08:50:00;;;;;;;1.43;1.40;;;42.70;33.80;;;42.00;nan;101301.97;4996718;28;20691;-69
2022/05/21 08:53:04;;;;;;;1.53;1.43;;;41.60;34.80;;;42.89;nan;101308.66;5027437;28;20798;-70
2022/05/21 08:55:42;;;;;;;1.63;1.50;;;42.20;34.60;;;42.22;nan;101300.16;5011314;28;20629;-68
2022/05/21 08:58:23;;;;;;;1.53;1.47;;;41.90;34.30;;;41.68;nan;101300.88;4997532;28;20659;-69
2022/05/21 09:00:55;;;;;;;1.20;1.20;;;41.90;34.20;;;42.02;nan;101291.50;5023474;28;20690;-69
2022/05/21 09:03:24;;;;;;;1.40;1.40;;;41.80;34.50;;;42.74;nan;101290.56;5032326;28;20667;-71
2022/05/21 09:06:18;;;;;;;1.40;1.40;;;42.60;34.20;;;42.27;nan;101282.78;5031060;28;20636;-68
2022/05/21 09:09:29;;;;;;;1.60;1.60;;;42.60;34.00;;;43.52;nan;101287.34;5033080;28;20657;-69
2022/05/21 09:12:00;;;;;;;1.10;1.10;;;42.90;33.80;;;44.74;nan;101282.81;5022761;28;20671;-68
2022/05/21 09:14:41;;;;;;;1.50;1.50;;;44.40;33.40;;;44.56;nan;101281.97;5015906;28;20612;-69
2022/05/21 09:17:23;;;;;;;0.70;0.70;;;44.50;33.10;;;44.17;nan;101283.97;5001074;28;21055;-70
2022/05/21 09:20:05;;;;;;;1.23;1.23;;;44.20;32.90;;;42.77;nan;101283.63;5027837;28;20637;-69
2022/05/21 09:22:33;;;;;;;1.00;1.00;;;42.60;33.30;;;42.77;nan;101278.97;5012902;28;20644;-68
2022/05/21 09:25:23;;;;;;;1.60;1.50;;;42.40;33.50;;;43.95;nan;101273.84;5031177;28;21013;-68
2022/05/21 09:28:08;;;;;;;2.13;1.40;;;43.40;33.40;;;44.74;nan;101276.50;5031415;28;20698;-70
2022/05/21 09:30:37;;;;;;;1.37;1.27;;;44.40;32.80;;;45.26;nan;101276.19;5032175;28;20633;-68
2022/05/21 09:33:32;;;;;;;1.40;1.40;;;45.20;32.50;;;45.19;nan;101272.31;5014268;28;21099;-69
2022/05/21 09:36:00;;;;;;;1.73;1.40;;;44.70;32.70;;;44.87;nan;101272.81;5025970;28;20699;-69
2022/05/21 09:38:30;;;;;;;1.53;1.40;;;44.50;32.60;;;45.66;nan;101270.44;5032407;28;20660;-68
2022/05/21 09:41:23;;;;;;;2.03;1.93;;;45.60;32.40;;;47.11;nan;101271.53;5033356;28;21010;-71
2022/05/21 09:47:15;;;;;;;1.33;1.23;;;47.50;31.00;;;47.12;nan;101273.13;4997898;28;21008;-69
2022/05/21 09:49:43;;;;;;;1.20;1.20;;;46.90;31.00;;;47.31;nan;101271.47;4996287;28;20612;-67
2022/05/21 09:52:25;;;;;;;1.53;1.43;;;47.20;31.00;;;47.04;nan;101274.03;5014164;28;20664;-68
2022/05/21 09:54:52;;;;;;;1.20;1.20;;;46.90;30.60;;;45.75;nan;101255.47;5032279;28;20642;-67
2022/05/21 09:57:37;;;;;;;1.50;1.50;;;45.90;30.70;;;43.39;nan;101254.44;5032831;28;20652;-68
2022/05/21 10:00:33;;;;;;;2.10;1.20;;;43.50;31.60;;;40.17;nan;101245.56;5014063;28;21110;-67
2022/05/21 10:03:04;;;;;;;1.83;1.50;;;40.70;32.90;;;38.98;nan;101240.91;5030772;28;20698;-68
2022/05/21 10:05:50;;;;;;;5.10;1.57;;;38.60;34.30;;;38.97;nan;101244.75;5029767;28;20634;-69
2022/05/21 10:11:41;;;;;;;2.40;1.73;;;38.70;34.10;;;38.97;nan;101244.75;5012946;28;20703;-68
2022/05/21 10:14:38;;;;;;;1.57;1.17;;;38.60;34.10;;;38.32;nan;101242.34;4994955;28;21122;-68
2022/05/21 10:17:32;;;;;;;1.73;1.63;;;38.10;34.70;;;37.65;nan;101240.88;5013599;28;20664;-70
2022/05/21 10:20:20;;;;;;;1.80;1.53;;;37.40;35.40;;;36.50;nan;101230.66;5013790;28;20632;-68
2022/05/21 10:22:52;;;;;;;1.23;1.20;;;36.20;36.20;;;35.60;nan;101220.06;5032199;28;20628;-67
2022/05/21 10:25:23;;;;;;;1.40;1.30;;;35.00;37.20;;;34.53;nan;101230.97;5016696;28;20632;-67
2022/05/21 10:28:26;;;;;;;1.37;1.20;;;33.80;38.10;;;33.76;nan;101221.19;5018623;28;20652;-68
2022/05/21 10:31:22;;;;;;;2.63;0.90;;;33.10;38.90;;;33.08;nan;101216.00;5018720;28;21008;-69
2022/05/21 10:34:41;;;;;;;5.23;1.20;;;32.40;39.70;;;32.13;nan;101219.28;5026362;28;20673;-69
2022/05/21 10:37:14;;;;;;;0.90;0.90;;;31.70;40.00;;;31.27;nan;101218.25;5027095;28;20660;-68
2022/05/21 10:40:25;;;;;;;1.40;1.20;;;30.60;40.00;;;30.58;nan;101232.28;5021982;28;20630;-65
2022/05/21 10:43:32;;;;;;;1.10;1.10;;;29.80;40.50;;;30.14;nan;101219.09;5011312;28;20744;-69
2022/05/21 10:46:02;;;;;;;3.23;1.07;;;29.30;41.20;;;30.12;nan;101218.50;4959027;28;20698;-67
2022/05/21 10:49:06;;;;;;;1.30;1.27;;;29.30;41.30;;;29.79;nan;101213.47;5021654;28;20676;-68
2022/05/21 10:52:10;;;;;;;4.50;1.57;;;29.00;41.80;;;29.65;nan;101222.66;5024087;28;20624;-68
2022/05/21 10:55:00;;;;;;;1.63;1.50;;;29.00;42.40;;;29.55;nan;101222.34;5030932;28;20698;-69
2022/05/21 10:58:08;;;;;;;1.10;1.00;;;29.00;42.90;;;29.43;nan;101218.75;5031806;28;20652;-68
2022/05/21 11:01:14;;;;;;;1.40;1.30;;;28.70;42.50;;;29.35;nan;101216.31;5031741;28;20723;-67
2022/05/21 11:04:27;;;;;;;8.40;6.13;;;28.60;42.70;;;28.98;nan;101209.94;5013150;28;20624;-66
2022/05/21 11:07:30;;;;;;;3.37;2.90;;;28.20;43.40;;;28.84;nan;101203.81;5030100;28;20620;-66
2022/05/21 11:10:21;;;;;;;1.43;1.07;;;28.10;43.30;;;28.53;nan;101203.75;5012230;28;20621;-69
2022/05/21 11:13:17;;;;;;;1.60;1.37;;;27.80;43.90;;;28.55;nan;101201.69;4994680;28;20672;-66
2022/05/21 11:15:53;;;;;;;4.60;1.63;;;27.70;43.90;;;28.70;nan;101198.72;5011359;28;20613;-66